createdAt,value
2019-04-29T00:02:25.992Z,9.00
2019-04-29T00:04:56.202Z,8.90
2019-04-29T00:07:26.437Z,8.70
2019-04-29T00:09:56.742Z,8.60
2019-04-29T00:12:27.806Z,8.40
2019-04-29T00:15:16.823Z,8.30
2019-04-29T00:18:00.445Z,8.30
2019-04-29T00:20:55.666Z,8.20
2019-04-29T00:23:25.990Z,8.10
2019-04-29T00:25:56.350Z,8.00
2019-04-29T00:28:26.572Z,7.80
2019-04-29T00:30:56.774Z,7.80
2019-04-29T00:33:27.017Z,7.70
2019-04-29T00:35:57.198Z,7.60
2019-04-29T00:38:58.853Z,7.50
2019-04-29T00:42:02.529Z,7.40
2019-04-29T00:44:32.769Z,7.40
2019-04-29T00:47:03.139Z,7.40
2019-04-29T00:49:33.213Z,7.40
2019-04-29T00:52:03.642Z,7.40
2019-04-29T00:54:39.404Z,7.40
2019-04-29T00:57:09.673Z,7.50
2019-04-29T00:59:39.889Z,7.50
2019-04-29T01:02:10.409Z,7.60
2019-04-29T01:04:40.654Z,7.60
2019-04-29T01:07:10.942Z,7.70
2019-04-29T01:09:41.162Z,7.70
2019-04-29T01:12:11.550Z,7.70
2019-04-29T01:14:41.666Z,7.80
2019-04-29T01:17:14.873Z,7.90
2019-04-29T01:19:45.389Z,7.90
2019-04-29T01:22:15.957Z,8.00
2019-04-29T01:24:46.132Z,8.00
2019-04-29T01:27:20.979Z,8.10
2019-04-29T01:29:51.250Z,8.10
2019-04-29T01:32:21.617Z,8.20
2019-04-29T01:34:53.742Z,8.20
2019-04-29T01:37:55.144Z,8.30
2019-04-29T01:40:44.615Z,8.30
2019-04-29T01:43:14.981Z,8.30
2019-04-29T01:45:45.143Z,8.30
2019-04-29T01:48:15.305Z,8.30
2019-04-29T01:50:45.422Z,8.30
2019-04-29T01:53:15.518Z,8.30
2019-04-29T01:55:45.799Z,8.30
2019-04-29T01:58:15.987Z,8.30
2019-04-29T02:00:46.156Z,8.30
2019-04-29T02:03:16.433Z,8.40
2019-04-29T02:05:46.769Z,8.40
2019-04-29T02:08:16.867Z,8.50
2019-04-29T02:10:47.169Z,8.50
2019-04-29T02:13:17.295Z,8.60
2019-04-29T02:15:47.558Z,8.60
2019-04-29T02:18:17.822Z,8.70
2019-04-29T02:20:48.462Z,8.70
2019-04-29T02:23:36.706Z,8.80
2019-04-29T02:26:07.515Z,8.80
2019-04-29T02:28:37.966Z,8.80
2019-04-29T02:31:26.005Z,8.80
2019-04-29T02:33:56.152Z,8.70
2019-04-29T02:36:29.885Z,8.80
2019-04-29T02:39:16.948Z,8.80
2019-04-29T02:42:06.111Z,8.80
2019-04-29T02:44:37.514Z,8.80
2019-04-29T02:47:07.737Z,8.70
2019-04-29T02:49:40.248Z,8.70
2019-04-29T02:52:10.918Z,8.70
2019-04-29T02:54:42.578Z,8.70
2019-04-29T02:57:38.111Z,8.70
2019-04-29T03:00:27.122Z,8.70
2019-04-29T03:03:05.021Z,8.70
2019-04-29T03:05:41.388Z,8.60
2019-04-29T03:08:12.326Z,8.60
2019-04-29T03:10:42.583Z,8.60
2019-04-29T03:13:12.747Z,8.50
2019-04-29T03:15:44.567Z,8.50
2019-04-29T03:18:14.892Z,8.40
2019-04-29T03:21:03.113Z,8.40
2019-04-29T03:23:33.469Z,8.40
2019-04-29T03:26:03.678Z,8.30
2019-04-29T03:28:33.931Z,8.30
2019-04-29T03:31:04.100Z,8.20
2019-04-29T03:33:34.297Z,8.10
2019-04-29T03:36:04.605Z,8.10
2019-04-29T03:38:34.841Z,8.00
2019-04-29T03:41:05.125Z,7.90
2019-04-29T03:43:35.359Z,7.80
2019-04-29T03:46:05.584Z,7.80
2019-04-29T03:48:35.722Z,7.70
2019-04-29T03:51:05.978Z,7.70
2019-04-29T03:53:36.312Z,7.60
2019-04-29T03:56:06.594Z,7.50
2019-04-29T03:58:36.867Z,7.50
2019-04-29T04:01:15.028Z,7.40
2019-04-29T04:03:49.379Z,7.40
2019-04-29T04:06:26.262Z,7.40
2019-04-29T04:09:18.151Z,7.30
2019-04-29T04:11:48.419Z,7.30
2019-04-29T04:14:18.505Z,7.40
2019-04-29T04:17:06.223Z,7.50
2019-04-29T04:19:36.559Z,7.60
2019-04-29T04:22:06.640Z,7.70
2019-04-29T04:24:36.882Z,7.80
2019-04-29T04:27:07.097Z,7.80
2019-04-29T04:29:37.428Z,7.80
2019-04-29T04:32:07.723Z,7.90
2019-04-29T04:34:37.795Z,7.90
2019-04-29T04:37:07.955Z,8.00
2019-04-29T04:39:39.850Z,8.10
2019-04-29T04:42:10.094Z,8.10
2019-04-29T04:44:49.837Z,8.20
2019-04-29T04:47:21.085Z,8.30
2019-04-29T04:49:51.424Z,8.30
2019-04-29T04:52:21.666Z,8.30
2019-04-29T04:54:53.674Z,8.40
2019-04-29T04:57:23.936Z,8.50
2019-04-29T04:59:54.111Z,8.50
2019-04-29T05:02:25.802Z,8.60
2019-04-29T05:04:56.070Z,8.60
2019-04-29T05:07:26.393Z,8.70
2019-04-29T05:09:56.736Z,8.80
2019-04-29T05:12:26.956Z,8.90
2019-04-29T05:15:07.581Z,8.90
2019-04-29T05:17:37.744Z,9.10
2019-04-29T05:20:08.036Z,9.20
2019-04-29T05:22:38.276Z,9.30
2019-04-29T05:25:09.147Z,9.30
2019-04-29T05:27:39.386Z,9.40
2019-04-29T05:30:10.103Z,9.40
2019-04-29T05:32:40.502Z,9.40
2019-04-29T05:35:14.103Z,9.40
2019-04-29T05:37:57.029Z,9.40
2019-04-29T05:40:50.446Z,9.50
2019-04-29T05:43:27.188Z,9.50
2019-04-29T05:46:07.518Z,9.60
2019-04-29T05:48:37.933Z,9.60
2019-04-29T05:51:28.399Z,9.70
2019-04-29T05:53:59.869Z,9.70
2019-04-29T05:56:30.051Z,9.70
2019-04-29T05:59:00.250Z,9.80
2019-04-29T06:01:31.475Z,9.80
2019-04-29T06:04:02.375Z,9.80
2019-04-29T06:06:32.736Z,9.90
2019-04-29T06:11:56.782Z,9.90
2019-04-29T06:14:45.615Z,9.90
2019-04-29T06:17:15.950Z,10.00
2019-04-29T06:19:46.058Z,10.00
2019-04-29T06:22:16.306Z,10.10
2019-04-29T06:24:46.361Z,10.10
2019-04-29T06:27:16.965Z,10.20
2019-04-29T06:29:47.410Z,10.20
2019-04-29T06:32:26.381Z,10.30
2019-04-29T06:34:56.939Z,10.30
2019-04-29T06:37:38.472Z,10.30
2019-04-29T06:51:03.014Z,10.70
2019-04-29T06:53:33.331Z,10.70
2019-04-29T06:56:10.372Z,10.80
2019-04-29T06:58:56.209Z,10.80
2019-04-29T07:01:48.894Z,10.90
2019-04-29T07:04:30.600Z,10.90
2019-04-29T07:07:01.497Z,10.90
2019-04-29T07:09:32.305Z,11.00
2019-04-29T07:12:12.295Z,11.10
2019-04-29T07:14:38.799Z,11.30
2019-04-29T07:17:09.228Z,11.40
2019-04-29T07:19:39.332Z,11.40
2019-04-29T07:22:09.538Z,11.60
2019-04-29T07:24:39.797Z,11.70
2019-04-29T07:27:10.154Z,11.60
2019-04-29T07:29:40.210Z,11.60
2019-04-29T07:32:14.097Z,11.60
2019-04-29T07:34:44.407Z,11.60
2019-04-29T07:37:16.855Z,11.50
2019-04-29T07:39:47.407Z,11.50
2019-04-29T07:42:17.647Z,11.60
2019-04-29T07:45:07.815Z,11.60
2019-04-29T07:47:39.059Z,11.60
2019-04-29T07:50:09.730Z,11.70
2019-04-29T07:52:40.323Z,11.60
2019-04-29T07:55:10.627Z,11.60
2019-04-29T07:57:40.947Z,11.60
2019-04-29T08:00:16.414Z,11.70
2019-04-29T08:02:46.841Z,11.80
2019-04-29T08:05:17.267Z,11.80
2019-04-29T08:07:48.206Z,11.80
2019-04-29T08:10:23.528Z,11.80
2019-04-29T08:12:50.868Z,11.80
2019-04-29T08:15:21.342Z,12.00
2019-04-29T08:18:05.595Z,12.20
2019-04-29T08:20:23.721Z,12.50
2019-04-29T08:22:54.141Z,12.60
2019-04-29T08:25:25.958Z,12.80
2019-04-29T08:27:56.324Z,12.80
2019-04-29T08:30:26.367Z,12.80
2019-04-29T08:32:57.826Z,12.90
2019-04-29T08:35:36.816Z,13.00
2019-04-29T08:38:06.423Z,13.20
2019-04-29T08:40:50.081Z,13.30
2019-04-29T08:43:52.488Z,13.30
2019-04-29T08:46:33.850Z,13.30
2019-04-29T08:49:05.962Z,13.60
2019-04-29T08:51:37.335Z,13.80
2019-04-29T08:54:07.390Z,14.00
2019-04-29T08:56:42.504Z,14.10
2019-04-29T08:59:09.973Z,14.20
2019-04-29T09:01:39.970Z,14.10
2019-04-29T09:04:10.034Z,14.00
2019-04-29T09:06:40.108Z,14.00
2019-04-29T09:09:27.995Z,14.20
2019-04-29T09:11:43.724Z,14.30
2019-04-29T09:14:14.064Z,14.30
2019-04-29T09:16:45.168Z,14.30
2019-04-29T09:19:15.461Z,14.30
2019-04-29T09:21:47.222Z,14.20
2019-04-29T09:24:26.033Z,14.00
2019-04-29T09:27:09.591Z,13.90
2019-04-29T09:29:40.532Z,13.80
2019-04-29T09:32:11.923Z,13.90
2019-04-29T09:34:43.010Z,13.90
2019-04-29T09:37:12.972Z,13.90
2019-04-29T09:39:44.817Z,14.00
2019-04-29T09:42:36.749Z,14.10
2019-04-29T09:45:14.680Z,14.30
2019-04-29T09:47:46.508Z,14.30
2019-04-29T09:50:17.121Z,14.40
2019-04-29T09:52:47.513Z,14.50
2019-04-29T09:55:19.076Z,14.50
2019-04-29T09:57:49.446Z,14.50
2019-04-29T10:00:50.792Z,14.60
2019-04-29T10:03:33.710Z,14.60
2019-04-29T10:06:17.262Z,14.50
2019-04-29T10:08:49.734Z,14.30
2019-04-29T10:11:20.015Z,14.10
2019-04-29T10:13:50.155Z,14.00
2019-04-29T10:16:37.689Z,13.80
2019-04-29T10:19:29.342Z,13.60
2019-04-29T10:21:59.532Z,13.20
2019-04-29T10:24:29.935Z,12.80
2019-04-29T10:27:00.448Z,12.50
2019-04-29T10:29:32.650Z,12.40
2019-04-29T10:32:06.836Z,12.30
2019-04-29T10:34:36.166Z,12.30
2019-04-29T10:37:07.479Z,12.30
2019-04-29T10:40:11.374Z,12.40
2019-04-29T10:42:59.074Z,12.50
2019-04-29T10:45:40.745Z,12.60
2019-04-29T10:48:19.458Z,12.70
2019-04-29T10:50:51.998Z,12.60
2019-04-29T10:53:22.120Z,12.60
2019-04-29T10:55:52.689Z,12.50
2019-04-29T10:58:30.172Z,12.40
2019-04-29T11:02:05.305Z,12.30
2019-04-29T11:04:36.270Z,12.30
2019-04-29T11:07:26.586Z,12.30
2019-04-29T11:10:00.052Z,12.40
2019-04-29T17:07:52.952Z,25.40
2019-04-29T17:10:45.459Z,25.40
2019-04-29T17:13:23.443Z,25.40
2019-04-29T17:15:52.241Z,25.30
2019-04-29T17:18:19.485Z,25.00
2019-04-29T17:20:49.471Z,24.80
2019-04-29T17:23:24.473Z,24.40
2019-04-29T17:25:52.173Z,24.00
2019-04-29T17:31:31.283Z,22.60
2019-04-29T17:34:12.785Z,21.40
2019-04-29T17:35:14.703Z,23.50
2019-04-29T17:36:44.234Z,20.30
2019-04-29T17:39:14.542Z,19.50
2019-04-29T17:41:44.622Z,19.60
2019-04-29T17:44:38.912Z,19.70
2019-04-29T17:47:27.330Z,19.70
2019-04-29T17:50:16.353Z,20.10
2019-04-29T17:52:47.546Z,20.50
2019-04-29T17:55:40.993Z,20.70
2019-04-29T17:58:19.426Z,20.70
2019-04-29T18:01:12.536Z,20.70
2019-04-29T18:04:00.104Z,20.60
2019-04-29T18:06:33.673Z,20.30
2019-04-29T18:09:30.193Z,19.70
2019-04-29T18:12:06.537Z,19.20
2019-04-29T18:14:54.934Z,18.80
2019-04-29T18:17:36.132Z,18.40
2019-04-29T18:20:33.036Z,17.70
2019-04-29T18:23:20.021Z,16.90
2019-04-29T18:25:55.143Z,16.00
2019-04-29T18:28:25.867Z,15.30
2019-04-29T18:30:57.936Z,14.80
2019-04-29T18:33:30.277Z,14.40
2019-04-29T18:36:04.300Z,14.00
2019-04-29T18:38:37.709Z,13.70
2019-04-29T18:41:09.446Z,13.30
2019-04-29T18:43:39.688Z,13.10
2019-04-29T18:46:12.637Z,12.90
2019-04-29T18:48:42.796Z,12.60
2019-04-29T18:51:13.016Z,12.40
2019-04-29T18:53:43.134Z,12.10
2019-04-29T18:56:14.810Z,11.90
2019-04-29T18:58:46.870Z,11.70
2019-04-29T19:01:19.661Z,11.60
2019-04-29T19:04:04.763Z,11.40
2019-04-29T19:06:33.375Z,11.30
2019-04-29T19:09:12.043Z,11.20
2019-04-29T19:11:35.658Z,11.10
2019-04-29T19:14:06.061Z,10.80
2019-04-29T19:16:39.433Z,10.70
2019-04-29T19:19:08.225Z,10.50
2019-04-29T19:21:38.242Z,10.30
2019-04-29T19:24:08.264Z,10.10
2019-04-29T19:26:38.467Z,10.00
2019-04-29T19:29:11.538Z,9.90
2019-04-29T19:31:48.062Z,9.90
2019-04-29T19:34:18.531Z,9.90
2019-04-29T19:36:46.183Z,10.00
2019-04-29T19:39:16.896Z,10.10
2019-04-29T19:41:50.445Z,10.10
2019-04-29T19:44:21.220Z,10.10
2019-04-29T19:46:51.576Z,10.20
2019-04-29T19:49:21.637Z,10.20
2019-04-29T19:51:51.749Z,10.20
2019-04-29T19:54:24.660Z,10.30
2019-04-29T19:57:02.991Z,10.30
2019-04-29T19:59:26.399Z,10.30
2019-04-29T20:02:05.449Z,10.30
2019-04-29T20:04:38.275Z,10.30
2019-04-29T20:07:10.317Z,10.30
2019-04-29T20:09:41.859Z,10.20
2019-04-29T20:12:14.997Z,10.20
2019-04-29T20:14:45.010Z,10.10
2019-04-29T20:17:36.606Z,10.00
2019-04-29T20:20:36.850Z,9.90
2019-04-29T20:23:03.391Z,9.80
2019-04-29T20:25:38.084Z,9.80
2019-04-29T20:28:12.736Z,9.70
2019-04-29T20:30:39.886Z,9.70
2019-04-29T20:33:12.646Z,9.70
2019-04-29T20:35:45.388Z,9.70
2019-04-29T20:38:15.716Z,9.70
2019-04-29T20:40:47.116Z,9.70
2019-04-29T20:43:20.750Z,9.60
2019-04-29T20:45:50.373Z,9.70
2019-04-29T20:48:20.747Z,9.70
2019-04-29T20:50:52.750Z,9.70
2019-04-29T20:53:39.778Z,9.70
2019-04-29T20:56:12.446Z,9.60
2019-04-29T20:58:44.006Z,9.40
2019-04-29T21:01:19.988Z,9.20
2019-04-29T21:03:53.745Z,9.10
2019-04-29T21:06:21.828Z,8.90
2019-04-29T21:08:52.233Z,8.80
2019-04-29T21:11:29.507Z,8.60
2019-04-29T21:14:13.482Z,8.60
2019-04-29T21:16:46.828Z,8.40
2019-04-29T21:19:16.807Z,8.30
2019-04-29T21:21:47.585Z,8.20
2019-04-29T21:24:18.777Z,8.20
2019-04-29T21:26:49.179Z,8.10
2019-04-29T21:29:28.141Z,8.00
2019-04-29T21:32:01.651Z,7.90
2019-04-29T21:34:39.012Z,7.90
2019-04-29T21:37:25.843Z,7.80
2019-04-29T21:40:07.154Z,7.70
2019-04-29T21:42:49.251Z,7.60
2019-04-29T21:45:20.610Z,7.60
2019-04-29T21:47:56.577Z,7.60
2019-04-29T21:50:36.937Z,7.50
2019-04-29T21:53:05.090Z,7.50
2019-04-29T21:55:35.814Z,7.50
2019-04-29T21:58:06.021Z,7.40
2019-04-29T22:00:37.382Z,7.40
2019-04-29T22:03:07.804Z,7.30
2019-04-29T22:05:37.982Z,7.30
2019-04-29T22:08:08.051Z,7.20
2019-04-29T22:10:38.301Z,7.10
2019-04-29T22:13:09.762Z,7.10
2019-04-29T22:15:42.424Z,7.10
2019-04-29T22:18:13.937Z,7.00
2019-04-29T22:20:43.477Z,7.00
2019-04-29T22:23:15.258Z,6.90
2019-04-29T22:25:46.942Z,6.90
2019-04-29T22:28:19.673Z,6.90
2019-04-29T22:30:54.215Z,6.90
2019-04-29T22:33:24.766Z,6.90
2019-04-29T22:35:55.444Z,6.80
2019-04-29T22:38:25.992Z,6.80
2019-04-29T22:40:57.638Z,6.80
2019-04-29T22:43:46.124Z,6.80
2019-04-29T22:46:17.537Z,6.70
2019-04-29T22:48:48.740Z,6.70
2019-04-29T22:51:19.184Z,6.70
2019-04-29T22:53:49.256Z,6.70
2019-04-29T22:56:19.345Z,6.60
2019-04-29T22:58:49.374Z,6.50
2019-04-29T23:01:19.364Z,6.40
2019-04-29T23:03:49.567Z,6.40
2019-04-29T23:06:19.630Z,6.30
2019-04-29T23:08:49.642Z,6.20
2019-04-29T23:11:19.770Z,6.20
2019-04-29T23:13:49.875Z,6.20
2019-04-29T23:16:20.720Z,6.10
2019-04-29T23:18:50.909Z,6.10
2019-04-29T23:21:47.330Z,6.10
2019-04-29T23:24:51.275Z,6.10
2019-04-29T23:27:20.545Z,6.00
2019-04-29T23:29:50.555Z,5.90
2019-04-29T23:32:20.747Z,5.90
2019-04-29T23:34:50.902Z,5.90
2019-04-29T23:37:23.842Z,5.80
2019-04-29T23:39:52.765Z,5.80
2019-04-29T23:42:22.890Z,5.80
2019-04-29T23:44:52.882Z,5.80
2019-04-29T23:47:22.849Z,5.70
2019-04-29T23:49:53.213Z,5.70
2019-04-29T23:52:23.195Z,5.70
2019-04-29T23:54:53.259Z,5.70
2019-04-29T23:57:45.972Z,5.70
